sensor_id;sensor_type;location;lat;lon;timestamp;P1;durP1;ratioP1;P2;durP2;ratioP2
22223;SDS011;11281;52.194;21.006;2022-08-19T00:04:11;15.00;;;11.48;;
22223;SDS011;11281;52.194;21.006;2022-08-19T00:08:35;13.25;;;11.57;;
22223;SDS011;11281;52.194;21.006;2022-08-19T00:12:57;15.40;;;11.10;;
22223;SDS011;11281;52.194;21.006;2022-08-19T00:17:19;14.13;;;11.68;;
22223;SDS011;11281;52.194;21.006;2022-08-19T00:21:41;15.15;;;11.05;;
22223;SDS011;11281;52.194;21.006;2022-08-19T00:26:04;18.10;;;11.57;;
22223;SDS011;11281;52.194;21.006;2022-08-19T00:30:26;14.27;;;10.90;;
22223;SDS011;11281;52.194;21.006;2022-08-19T00:34:48;14.82;;;10.95;;
22223;SDS011;11281;52.194;21.006;2022-08-19T00:39:13;16.40;;;11.55;;
22223;SDS011;11281;52.194;21.006;2022-08-19T00:43:36;15.20;;;11.48;;
22223;SDS011;11281;52.194;21.006;2022-08-19T00:47:59;14.15;;;10.07;;
22223;SDS011;11281;52.194;21.006;2022-08-19T00:52:26;13.05;;;10.85;;
22223;SDS011;11281;52.194;21.006;2022-08-19T00:56:51;13.95;;;11.05;;
22223;SDS011;11281;52.194;21.006;2022-08-19T01:01:13;14.27;;;11.00;;
22223;SDS011;11281;52.194;21.006;2022-08-19T01:05:35;15.48;;;11.90;;
22223;SDS011;11281;52.194;21.006;2022-08-19T01:10:00;14.40;;;10.73;;
22223;SDS011;11281;52.194;21.006;2022-08-19T01:14:24;14.32;;;10.82;;
22223;SDS011;11281;52.194;21.006;2022-08-19T01:18:46;14.15;;;11.15;;
22223;SDS011;11281;52.194;21.006;2022-08-19T01:23:10;16.73;;;12.02;;
22223;SDS011;11281;52.194;21.006;2022-08-19T01:27:37;15.82;;;11.10;;
22223;SDS011;11281;52.194;21.006;2022-08-19T01:32:01;17.65;;;11.23;;
22223;SDS011;11281;52.194;21.006;2022-08-19T01:40:59;13.73;;;11.48;;
22223;SDS011;11281;52.194;21.006;2022-08-19T01:45:22;12.65;;;11.25;;
22223;SDS011;11281;52.194;21.006;2022-08-19T01:49:47;13.60;;;10.88;;
22223;SDS011;11281;52.194;21.006;2022-08-19T01:54:10;13.40;;;11.40;;
22223;SDS011;11281;52.194;21.006;2022-08-19T01:58:40;14.07;;;10.82;;
22223;SDS011;11281;52.194;21.006;2022-08-19T02:03:07;14.60;;;12.00;;
22223;SDS011;11281;52.194;21.006;2022-08-19T02:07:30;13.25;;;11.15;;
22223;SDS011;11281;52.194;21.006;2022-08-19T02:11:53;17.52;;;11.82;;
22223;SDS011;11281;52.194;21.006;2022-08-19T02:16:16;15.30;;;11.30;;
22223;SDS011;11281;52.194;21.006;2022-08-19T02:20:39;13.63;;;11.85;;
22223;SDS011;11281;52.194;21.006;2022-08-19T02:25:03;15.55;;;11.70;;
22223;SDS011;11281;52.194;21.006;2022-08-19T02:29:25;16.92;;;11.95;;
22223;SDS011;11281;52.194;21.006;2022-08-19T02:33:47;16.58;;;12.27;;
22223;SDS011;11281;52.194;21.006;2022-08-19T02:38:09;17.27;;;10.98;;
22223;SDS011;11281;52.194;21.006;2022-08-19T02:42:46;17.80;;;11.68;;
22223;SDS011;11281;52.194;21.006;2022-08-19T02:47:07;14.73;;;11.35;;
22223;SDS011;11281;52.194;21.006;2022-08-19T02:51:32;21.23;;;12.52;;
22223;SDS011;11281;52.194;21.006;2022-08-19T02:55:56;18.50;;;11.77;;
22223;SDS011;11281;52.194;21.006;2022-08-19T03:00:18;14.57;;;11.95;;
22223;SDS011;11281;52.194;21.006;2022-08-19T03:04:40;15.57;;;12.00;;
22223;SDS011;11281;52.194;21.006;2022-08-19T03:09:03;13.93;;;10.52;;
22223;SDS011;11281;52.194;21.006;2022-08-19T03:13:24;14.27;;;11.20;;
22223;SDS011;11281;52.194;21.006;2022-08-19T03:17:46;13.57;;;11.27;;
22223;SDS011;11281;52.194;21.006;2022-08-19T03:22:08;14.70;;;11.23;;
22223;SDS011;11281;52.194;21.006;2022-08-19T03:26:30;17.67;;;11.20;;
22223;SDS011;11281;52.194;21.006;2022-08-19T03:30:59;16.77;;;11.60;;
22223;SDS011;11281;52.194;21.006;2022-08-19T03:35:33;14.13;;;10.30;;
22223;SDS011;11281;52.194;21.006;2022-08-19T03:39:57;14.57;;;11.30;;
22223;SDS011;11281;52.194;21.006;2022-08-19T03:44:20;14.27;;;11.30;;
22223;SDS011;11281;52.194;21.006;2022-08-19T03:48:43;14.93;;;11.38;;
22223;SDS011;11281;52.194;21.006;2022-08-19T03:53:05;17.25;;;12.50;;
22223;SDS011;11281;52.194;21.006;2022-08-19T03:57:28;17.40;;;12.00;;
22223;SDS011;11281;52.194;21.006;2022-08-19T04:01:49;14.13;;;11.60;;
22223;SDS011;11281;52.194;21.006;2022-08-19T04:06:12;15.15;;;12.15;;
22223;SDS011;11281;52.194;21.006;2022-08-19T04:10:38;16.05;;;12.00;;
22223;SDS011;11281;52.194;21.006;2022-08-19T04:15:01;15.55;;;12.55;;
22223;SDS011;11281;52.194;21.006;2022-08-19T04:19:24;17.23;;;11.25;;
22223;SDS011;11281;52.194;21.006;2022-08-19T04:23:47;15.95;;;11.60;;
22223;SDS011;11281;52.194;21.006;2022-08-19T04:28:11;15.68;;;11.50;;
22223;SDS011;11281;52.194;21.006;2022-08-19T04:32:33;15.68;;;11.93;;
22223;SDS011;11281;52.194;21.006;2022-08-19T04:36:56;16.35;;;11.32;;
22223;SDS011;11281;52.194;21.006;2022-08-19T04:41:19;15.43;;;12.35;;
22223;SDS011;11281;52.194;21.006;2022-08-19T04:46:06;12.20;;;10.35;;
22223;SDS011;11281;52.194;21.006;2022-08-19T04:50:31;15.57;;;11.10;;
22223;SDS011;11281;52.194;21.006;2022-08-19T04:54:53;18.58;;;12.00;;
22223;SDS011;11281;52.194;21.006;2022-08-19T04:59:16;13.73;;;10.65;;
22223;SDS011;11281;52.194;21.006;2022-08-19T05:03:40;15.23;;;11.25;;
22223;SDS011;11281;52.194;21.006;2022-08-19T05:08:01;14.52;;;10.95;;
22223;SDS011;11281;52.194;21.006;2022-08-19T05:12:23;14.48;;;11.10;;
22223;SDS011;11281;52.194;21.006;2022-08-19T05:16:46;14.82;;;11.32;;
22223;SDS011;11281;52.194;21.006;2022-08-19T05:21:09;19.08;;;12.48;;
22223;SDS011;11281;52.194;21.006;2022-08-19T05:25:52;14.45;;;12.23;;
22223;SDS011;11281;52.194;21.006;2022-08-19T05:30:14;19.08;;;12.27;;
22223;SDS011;11281;52.194;21.006;2022-08-19T05:34:37;13.75;;;11.35;;
22223;SDS011;11281;52.194;21.006;2022-08-19T05:38:59;14.73;;;11.70;;
22223;SDS011;11281;52.194;21.006;2022-08-19T05:43:21;17.00;;;12.88;;
22223;SDS011;11281;52.194;21.006;2022-08-19T05:47:43;18.35;;;12.00;;
22223;SDS011;11281;52.194;21.006;2022-08-19T05:52:08;17.90;;;12.50;;
22223;SDS011;11281;52.194;21.006;2022-08-19T05:56:32;16.80;;;11.73;;
22223;SDS011;11281;52.194;21.006;2022-08-19T06:00:57;17.52;;;12.30;;
22223;SDS011;11281;52.194;21.006;2022-08-19T06:05:25;17.98;;;11.98;;
22223;SDS011;11281;52.194;21.006;2022-08-19T06:09:46;16.52;;;10.98;;
22223;SDS011;11281;52.194;21.006;2022-08-19T06:14:15;18.05;;;12.02;;
22223;SDS011;11281;52.194;21.006;2022-08-19T06:18:41;16.65;;;11.40;;
22223;SDS011;11281;52.194;21.006;2022-08-19T06:23:05;18.45;;;12.00;;
22223;SDS011;11281;52.194;21.006;2022-08-19T06:27:26;19.10;;;12.07;;
22223;SDS011;11281;52.194;21.006;2022-08-19T06:31:51;19.00;;;12.10;;
22223;SDS011;11281;52.194;21.006;2022-08-19T06:36:24;16.25;;;11.95;;
22223;SDS011;11281;52.194;21.006;2022-08-19T06:40:59;18.60;;;11.15;;
22223;SDS011;11281;52.194;21.006;2022-08-19T06:45:24;18.92;;;11.25;;
22223;SDS011;11281;52.194;21.006;2022-08-19T06:49:46;19.88;;;11.85;;
22223;SDS011;11281;52.194;21.006;2022-08-19T06:54:08;12.70;;;11.23;;
22223;SDS011;11281;52.194;21.006;2022-08-19T06:58:31;14.20;;;10.10;;
22223;SDS011;11281;52.194;21.006;2022-08-19T07:02:53;15.25;;;9.50;;
22223;SDS011;11281;52.194;21.006;2022-08-19T07:07:15;11.93;;;9.52;;
22223;SDS011;11281;52.194;21.006;2022-08-19T07:11:36;11.15;;;10.00;;
22223;SDS011;11281;52.194;21.006;2022-08-19T07:15:58;17.80;;;9.65;;
22223;SDS011;11281;52.194;21.006;2022-08-19T07:20:25;16.20;;;9.88;;
22223;SDS011;11281;52.194;21.006;2022-08-19T07:24:46;13.75;;;9.80;;
22223;SDS011;11281;52.194;21.006;2022-08-19T07:29:09;12.90;;;9.52;;
22223;SDS011;11281;52.194;21.006;2022-08-19T07:33:32;12.18;;;9.30;;
22223;SDS011;11281;52.194;21.006;2022-08-19T07:37:58;12.07;;;8.77;;
22223;SDS011;11281;52.194;21.006;2022-08-19T07:42:23;13.02;;;9.38;;
22223;SDS011;11281;52.194;21.006;2022-08-19T07:46:48;13.65;;;10.50;;
22223;SDS011;11281;52.194;21.006;2022-08-19T07:51:18;10.30;;;9.05;;
22223;SDS011;11281;52.194;21.006;2022-08-19T07:55:41;11.98;;;8.77;;
22223;SDS011;11281;52.194;21.006;2022-08-19T08:00:04;13.05;;;9.00;;
22223;SDS011;11281;52.194;21.006;2022-08-19T08:04:27;12.77;;;9.32;;
22223;SDS011;11281;52.194;21.006;2022-08-19T08:09:09;13.70;;;9.15;;
22223;SDS011;11281;52.194;21.006;2022-08-19T08:13:32;12.27;;;9.10;;
22223;SDS011;11281;52.194;21.006;2022-08-19T08:17:55;14.02;;;9.60;;
22223;SDS011;11281;52.194;21.006;2022-08-19T08:22:19;14.57;;;8.63;;
22223;SDS011;11281;52.194;21.006;2022-08-19T08:27:01;12.05;;;9.15;;
22223;SDS011;11281;52.194;21.006;2022-08-19T08:31:24;15.48;;;8.82;;
22223;SDS011;11281;52.194;21.006;2022-08-19T08:35:46;10.32;;;7.65;;
22223;SDS011;11281;52.194;21.006;2022-08-19T08:40:11;18.38;;;8.88;;
22223;SDS011;11281;52.194;21.006;2022-08-19T08:54:05;12.15;;;8.10;;
22223;SDS011;11281;52.194;21.006;2022-08-19T08:59:19;14.10;;;8.18;;
22223;SDS011;11281;52.194;21.006;2022-08-19T09:03:21;14.40;;;8.30;;
22223;SDS011;11281;52.194;21.006;2022-08-19T09:12:30;11.85;;;7.53;;
22223;SDS011;11281;52.194;21.006;2022-08-19T09:17:31;13.95;;;7.72;;
22223;SDS011;11281;52.194;21.006;2022-08-19T09:21:54;12.43;;;8.07;;
22223;SDS011;11281;52.194;21.006;2022-08-19T09:26:17;12.52;;;7.68;;
22223;SDS011;11281;52.194;21.006;2022-08-19T09:30:41;11.60;;;7.78;;
22223;SDS011;11281;52.194;21.006;2022-08-19T09:35:03;10.98;;;7.90;;
22223;SDS011;11281;52.194;21.006;2022-08-19T09:39:27;8.30;;;7.38;;
22223;SDS011;11281;52.194;21.006;2022-08-19T09:43:50;10.43;;;7.20;;
22223;SDS011;11281;52.194;21.006;2022-08-19T09:48:14;12.85;;;7.85;;
22223;SDS011;11281;52.194;21.006;2022-08-19T09:52:36;11.63;;;7.57;;
22223;SDS011;11281;52.194;21.006;2022-08-19T09:56:59;9.68;;;7.40;;
22223;SDS011;11281;52.194;21.006;2022-08-19T10:01:23;13.73;;;7.55;;
22223;SDS011;11281;52.194;21.006;2022-08-19T10:05:47;15.45;;;8.18;;
22223;SDS011;11281;52.194;21.006;2022-08-19T10:10:09;9.38;;;7.97;;
22223;SDS011;11281;52.194;21.006;2022-08-19T10:14:31;10.32;;;7.30;;
22223;SDS011;11281;52.194;21.006;2022-08-19T10:18:54;11.05;;;7.45;;
22223;SDS011;11281;52.194;21.006;2022-08-19T10:23:16;9.43;;;6.95;;
22223;SDS011;11281;52.194;21.006;2022-08-19T10:27:39;11.43;;;7.10;;
22223;SDS011;11281;52.194;21.006;2022-08-19T10:32:02;9.02;;;6.90;;
22223;SDS011;11281;52.194;21.006;2022-08-19T10:36:32;12.32;;;7.78;;
22223;SDS011;11281;52.194;21.006;2022-08-19T10:40:56;15.60;;;7.93;;
22223;SDS011;11281;52.194;21.006;2022-08-19T10:45:19;11.70;;;7.63;;
22223;SDS011;11281;52.194;21.006;2022-08-19T10:49:44;14.48;;;6.97;;
22223;SDS011;11281;52.194;21.006;2022-08-19T10:54:24;11.90;;;6.70;;
22223;SDS011;11281;52.194;21.006;2022-08-19T10:59:07;13.00;;;7.10;;
22223;SDS011;11281;52.194;21.006;2022-08-19T11:03:29;12.20;;;7.55;;
22223;SDS011;11281;52.194;21.006;2022-08-19T11:07:51;9.88;;;7.57;;
22223;SDS011;11281;52.194;21.006;2022-08-19T11:12:13;15.00;;;7.60;;
22223;SDS011;11281;52.194;21.006;2022-08-19T11:16:36;10.95;;;7.53;;
22223;SDS011;11281;52.194;21.006;2022-08-19T11:21:05;10.60;;;7.25;;
22223;SDS011;11281;52.194;21.006;2022-08-19T11:25:38;10.55;;;6.65;;
22223;SDS011;11281;52.194;21.006;2022-08-19T11:30:00;9.50;;;6.47;;
22223;SDS011;11281;52.194;21.006;2022-08-19T11:34:25;11.20;;;7.15;;
22223;SDS011;11281;52.194;21.006;2022-08-19T11:38:50;8.20;;;6.22;;
22223;SDS011;11281;52.194;21.006;2022-08-19T11:43:11;7.05;;;6.35;;
22223;SDS011;11281;52.194;21.006;2022-08-19T11:47:33;8.88;;;6.55;;
22223;SDS011;11281;52.194;21.006;2022-08-19T11:51:55;11.43;;;6.25;;
22223;SDS011;11281;52.194;21.006;2022-08-19T11:56:17;10.75;;;6.93;;
22223;SDS011;11281;52.194;21.006;2022-08-19T12:00:40;11.60;;;5.70;;
22223;SDS011;11281;52.194;21.006;2022-08-19T12:05:03;11.23;;;6.47;;
22223;SDS011;11281;52.194;21.006;2022-08-19T12:09:25;12.75;;;6.18;;
22223;SDS011;11281;52.194;21.006;2022-08-19T12:13:47;9.88;;;6.45;;
22223;SDS011;11281;52.194;21.006;2022-08-19T12:18:09;12.45;;;6.10;;
22223;SDS011;11281;52.194;21.006;2022-08-19T12:22:30;7.97;;;5.38;;
22223;SDS011;11281;52.194;21.006;2022-08-19T12:26:52;9.30;;;5.13;;
22223;SDS011;11281;52.194;21.006;2022-08-19T12:31:16;10.13;;;6.10;;
22223;SDS011;11281;52.194;21.006;2022-08-19T12:35:42;8.77;;;5.80;;
22223;SDS011;11281;52.194;21.006;2022-08-19T12:40:07;7.13;;;5.32;;
22223;SDS011;11281;52.194;21.006;2022-08-19T12:44:30;10.10;;;5.60;;
22223;SDS011;11281;52.194;21.006;2022-08-19T12:48:52;12.27;;;5.43;;
22223;SDS011;11281;52.194;21.006;2022-08-19T12:53:15;9.13;;;5.65;;
22223;SDS011;11281;52.194;21.006;2022-08-19T12:57:37;8.40;;;4.90;;
22223;SDS011;11281;52.194;21.006;2022-08-19T13:01:59;9.07;;;5.05;;
22223;SDS011;11281;52.194;21.006;2022-08-19T13:06:20;10.70;;;5.45;;
22223;SDS011;11281;52.194;21.006;2022-08-19T13:10:43;10.15;;;5.60;;
22223;SDS011;11281;52.194;21.006;2022-08-19T13:15:05;11.73;;;5.72;;
22223;SDS011;11281;52.194;21.006;2022-08-19T13:19:28;11.82;;;5.38;;
22223;SDS011;11281;52.194;21.006;2022-08-19T13:23:51;8.65;;;5.57;;
22223;SDS011;11281;52.194;21.006;2022-08-19T13:28:13;13.15;;;5.13;;
22223;SDS011;11281;52.194;21.006;2022-08-19T13:32:35;7.95;;;5.13;;
22223;SDS011;11281;52.194;21.006;2022-08-19T13:37:15;8.10;;;5.28;;
22223;SDS011;11281;52.194;21.006;2022-08-19T13:41:57;11.25;;;5.00;;
22223;SDS011;11281;52.194;21.006;2022-08-19T13:46:21;8.52;;;5.25;;
22223;SDS011;11281;52.194;21.006;2022-08-19T13:50:44;10.32;;;5.13;;
22223;SDS011;11281;52.194;21.006;2022-08-19T13:55:08;10.02;;;5.32;;
22223;SDS011;11281;52.194;21.006;2022-08-19T13:59:31;7.15;;;5.43;;
22223;SDS011;11281;52.194;21.006;2022-08-19T14:03:54;6.10;;;5.38;;
22223;SDS011;11281;52.194;21.006;2022-08-19T14:08:15;8.40;;;5.75;;
22223;SDS011;11281;52.194;21.006;2022-08-19T14:12:39;7.82;;;4.95;;
22223;SDS011;11281;52.194;21.006;2022-08-19T14:17:01;10.60;;;5.20;;
22223;SDS011;11281;52.194;21.006;2022-08-19T14:21:23;12.23;;;4.43;;
22223;SDS011;11281;52.194;21.006;2022-08-19T14:25:46;10.15;;;5.13;;
22223;SDS011;11281;52.194;21.006;2022-08-19T14:30:09;8.98;;;5.20;;
22223;SDS011;11281;52.194;21.006;2022-08-19T14:34:35;10.85;;;4.75;;
22223;SDS011;11281;52.194;21.006;2022-08-19T14:38:58;11.85;;;4.95;;
22223;SDS011;11281;52.194;21.006;2022-08-19T14:43:21;9.18;;;5.40;;
22223;SDS011;11281;52.194;21.006;2022-08-19T14:47:43;6.57;;;4.57;;
22223;SDS011;11281;52.194;21.006;2022-08-19T14:52:05;8.57;;;5.25;;
22223;SDS011;11281;52.194;21.006;2022-08-19T14:56:28;9.38;;;4.82;;
22223;SDS011;11281;52.194;21.006;2022-08-19T15:00:51;6.85;;;4.68;;
22223;SDS011;11281;52.194;21.006;2022-08-19T15:05:13;7.82;;;5.35;;
22223;SDS011;11281;52.194;21.006;2022-08-19T15:09:34;10.25;;;5.28;;
22223;SDS011;11281;52.194;21.006;2022-08-19T15:13:56;9.32;;;4.78;;
22223;SDS011;11281;52.194;21.006;2022-08-19T15:18:18;8.10;;;4.80;;
22223;SDS011;11281;52.194;21.006;2022-08-19T15:22:41;6.43;;;5.22;;
22223;SDS011;11281;52.194;21.006;2022-08-19T15:27:03;8.13;;;5.47;;
22223;SDS011;11281;52.194;21.006;2022-08-19T15:31:26;6.63;;;4.68;;
22223;SDS011;11281;52.194;21.006;2022-08-19T15:35:49;7.22;;;4.53;;
22223;SDS011;11281;52.194;21.006;2022-08-19T15:40:11;10.13;;;5.22;;
22223;SDS011;11281;52.194;21.006;2022-08-19T15:44:33;8.73;;;4.82;;
22223;SDS011;11281;52.194;21.006;2022-08-19T15:48:55;7.93;;;4.90;;
22223;SDS011;11281;52.194;21.006;2022-08-19T15:53:17;6.72;;;4.43;;
22223;SDS011;11281;52.194;21.006;2022-08-19T15:57:39;7.75;;;5.13;;
22223;SDS011;11281;52.194;21.006;2022-08-19T16:02:20;8.57;;;4.53;;
22223;SDS011;11281;52.194;21.006;2022-08-19T16:07:04;8.25;;;4.70;;
22223;SDS011;11281;52.194;21.006;2022-08-19T16:11:30;8.60;;;4.63;;
22223;SDS011;11281;52.194;21.006;2022-08-19T16:15:54;7.00;;;4.80;;
22223;SDS011;11281;52.194;21.006;2022-08-19T16:20:17;10.00;;;5.05;;
22223;SDS011;11281;52.194;21.006;2022-08-19T16:24:42;7.68;;;5.00;;
22223;SDS011;11281;52.194;21.006;2022-08-19T16:29:04;8.63;;;5.45;;
22223;SDS011;11281;52.194;21.006;2022-08-19T16:33:28;9.20;;;4.90;;
22223;SDS011;11281;52.194;21.006;2022-08-19T16:37:51;8.30;;;5.03;;
22223;SDS011;11281;52.194;21.006;2022-08-19T16:42:13;6.13;;;4.70;;
22223;SDS011;11281;52.194;21.006;2022-08-19T16:46:36;7.88;;;4.90;;
22223;SDS011;11281;52.194;21.006;2022-08-19T16:50:59;6.22;;;4.65;;
22223;SDS011;11281;52.194;21.006;2022-08-19T16:55:22;7.38;;;4.70;;
22223;SDS011;11281;52.194;21.006;2022-08-19T16:59:45;6.15;;;5.03;;
22223;SDS011;11281;52.194;21.006;2022-08-19T17:04:06;6.22;;;5.10;;
22223;SDS011;11281;52.194;21.006;2022-08-19T17:08:29;10.98;;;5.43;;
22223;SDS011;11281;52.194;21.006;2022-08-19T17:12:52;7.55;;;4.85;;
22223;SDS011;11281;52.194;21.006;2022-08-19T17:17:15;7.38;;;5.25;;
22223;SDS011;11281;52.194;21.006;2022-08-19T17:21:36;10.30;;;5.30;;
22223;SDS011;11281;52.194;21.006;2022-08-19T17:26:00;11.90;;;4.70;;
22223;SDS011;11281;52.194;21.006;2022-08-19T17:30:22;9.63;;;5.20;;
22223;SDS011;11281;52.194;21.006;2022-08-19T17:34:45;5.78;;;4.70;;
22223;SDS011;11281;52.194;21.006;2022-08-19T17:39:07;9.57;;;4.72;;
22223;SDS011;11281;52.194;21.006;2022-08-19T17:43:28;10.05;;;4.75;;
22223;SDS011;11281;52.194;21.006;2022-08-19T17:47:53;8.82;;;5.15;;
22223;SDS011;11281;52.194;21.006;2022-08-19T17:52:15;11.65;;;5.60;;
22223;SDS011;11281;52.194;21.006;2022-08-19T17:56:37;9.43;;;4.90;;
22223;SDS011;11281;52.194;21.006;2022-08-19T18:00:59;8.93;;;5.32;;
22223;SDS011;11281;52.194;21.006;2022-08-19T18:05:26;9.57;;;5.10;;
22223;SDS011;11281;52.194;21.006;2022-08-19T18:09:51;10.02;;;5.28;;
22223;SDS011;11281;52.194;21.006;2022-08-19T18:14:14;7.25;;;5.00;;
22223;SDS011;11281;52.194;21.006;2022-08-19T18:18:40;8.30;;;5.22;;
22223;SDS011;11281;52.194;21.006;2022-08-19T18:23:03;9.45;;;5.65;;
22223;SDS011;11281;52.194;21.006;2022-08-19T18:27:25;13.90;;;5.07;;
22223;SDS011;11281;52.194;21.006;2022-08-19T18:31:47;9.80;;;5.28;;
22223;SDS011;11281;52.194;21.006;2022-08-19T18:36:09;10.73;;;4.93;;
22223;SDS011;11281;52.194;21.006;2022-08-19T18:40:31;10.88;;;4.75;;
22223;SDS011;11281;52.194;21.006;2022-08-19T18:45:11;12.65;;;5.35;;
22223;SDS011;11281;52.194;21.006;2022-08-19T18:49:52;5.75;;;4.90;;
22223;SDS011;11281;52.194;21.006;2022-08-19T18:54:14;9.82;;;5.10;;
22223;SDS011;11281;52.194;21.006;2022-08-19T18:58:36;9.60;;;5.13;;
22223;SDS011;11281;52.194;21.006;2022-08-19T19:02:58;6.25;;;4.38;;
22223;SDS011;11281;52.194;21.006;2022-08-19T19:07:20;13.27;;;4.90;;
22223;SDS011;11281;52.194;21.006;2022-08-19T19:11:43;11.38;;;4.95;;
22223;SDS011;11281;52.194;21.006;2022-08-19T19:16:10;12.43;;;5.53;;
22223;SDS011;11281;52.194;21.006;2022-08-19T19:20:32;9.65;;;4.90;;
22223;SDS011;11281;52.194;21.006;2022-08-19T19:24:53;12.27;;;5.03;;
22223;SDS011;11281;52.194;21.006;2022-08-19T19:29:16;10.60;;;5.15;;
22223;SDS011;11281;52.194;21.006;2022-08-19T19:33:39;13.77;;;5.93;;
22223;SDS011;11281;52.194;21.006;2022-08-19T19:38:02;14.85;;;5.28;;
22223;SDS011;11281;52.194;21.006;2022-08-19T19:42:24;9.23;;;5.82;;
22223;SDS011;11281;52.194;21.006;2022-08-19T19:46:45;12.95;;;6.13;;
22223;SDS011;11281;52.194;21.006;2022-08-19T19:51:08;8.85;;;5.82;;
22223;SDS011;11281;52.194;21.006;2022-08-19T19:55:30;13.88;;;5.18;;
22223;SDS011;11281;52.194;21.006;2022-08-19T19:59:52;9.75;;;5.85;;
22223;SDS011;11281;52.194;21.006;2022-08-19T20:04:14;10.13;;;5.50;;
22223;SDS011;11281;52.194;21.006;2022-08-19T20:08:37;7.38;;;5.75;;
22223;SDS011;11281;52.194;21.006;2022-08-19T20:13:17;7.57;;;5.40;;
22223;SDS011;11281;52.194;21.006;2022-08-19T20:17:39;10.18;;;5.57;;
22223;SDS011;11281;52.194;21.006;2022-08-19T20:22:03;11.95;;;5.35;;
22223;SDS011;11281;52.194;21.006;2022-08-19T20:26:26;9.60;;;5.18;;
22223;SDS011;11281;52.194;21.006;2022-08-19T20:30:49;6.97;;;5.30;;
22223;SDS011;11281;52.194;21.006;2022-08-19T20:35:17;9.57;;;4.97;;
22223;SDS011;11281;52.194;21.006;2022-08-19T20:39:40;10.82;;;5.25;;
22223;SDS011;11281;52.194;21.006;2022-08-19T20:44:03;11.27;;;5.85;;
22223;SDS011;11281;52.194;21.006;2022-08-19T20:48:26;7.30;;;5.35;;
22223;SDS011;11281;52.194;21.006;2022-08-19T20:52:48;7.40;;;5.68;;
22223;SDS011;11281;52.194;21.006;2022-08-19T20:57:10;7.65;;;5.45;;
22223;SDS011;11281;52.194;21.006;2022-08-19T21:01:32;9.90;;;5.40;;
22223;SDS011;11281;52.194;21.006;2022-08-19T21:05:54;9.60;;;6.18;;
22223;SDS011;11281;52.194;21.006;2022-08-19T21:10:16;9.60;;;5.88;;
22223;SDS011;11281;52.194;21.006;2022-08-19T21:14:39;9.77;;;4.95;;
22223;SDS011;11281;52.194;21.006;2022-08-19T21:19:02;13.52;;;6.03;;
22223;SDS011;11281;52.194;21.006;2022-08-19T21:23:27;8.85;;;5.68;;
22223;SDS011;11281;52.194;21.006;2022-08-19T21:27:51;8.77;;;4.95;;
22223;SDS011;11281;52.194;21.006;2022-08-19T21:32:12;12.82;;;5.35;;
22223;SDS011;11281;52.194;21.006;2022-08-19T21:36:34;10.10;;;5.25;;
22223;SDS011;11281;52.194;21.006;2022-08-19T21:40:56;10.23;;;5.40;;
22223;SDS011;11281;52.194;21.006;2022-08-19T21:45:18;8.45;;;5.90;;
22223;SDS011;11281;52.194;21.006;2022-08-19T21:49:40;8.18;;;5.22;;
22223;SDS011;11281;52.194;21.006;2022-08-19T21:54:02;13.45;;;5.35;;
22223;SDS011;11281;52.194;21.006;2022-08-19T21:58:25;18.38;;;6.07;;
22223;SDS011;11281;52.194;21.006;2022-08-19T22:02:47;10.40;;;5.78;;
22223;SDS011;11281;52.194;21.006;2022-08-19T22:07:10;12.20;;;5.57;;
22223;SDS011;11281;52.194;21.006;2022-08-19T22:11:34;12.23;;;5.82;;
22223;SDS011;11281;52.194;21.006;2022-08-19T22:32:52;9.15;;;5.32;;
22223;SDS011;11281;52.194;21.006;2022-08-19T22:37:16;10.32;;;5.45;;
22223;SDS011;11281;52.194;21.006;2022-08-19T22:41:37;8.75;;;5.95;;
22223;SDS011;11281;52.194;21.006;2022-08-19T22:46:00;6.50;;;5.45;;
22223;SDS011;11281;52.194;21.006;2022-08-19T22:50:22;6.93;;;4.65;;
22223;SDS011;11281;52.194;21.006;2022-08-19T22:54:45;8.13;;;5.65;;
22223;SDS011;11281;52.194;21.006;2022-08-19T22:59:14;7.50;;;4.68;;
22223;SDS011;11281;52.194;21.006;2022-08-19T23:03:35;8.45;;;5.50;;
22223;SDS011;11281;52.194;21.006;2022-08-19T23:07:57;7.35;;;4.55;;
22223;SDS011;11281;52.194;21.006;2022-08-19T23:12:27;12.10;;;5.40;;
22223;SDS011;11281;52.194;21.006;2022-08-19T23:16:51;11.05;;;5.32;;
22223;SDS011;11281;52.194;21.006;2022-08-19T23:21:13;7.93;;;5.60;;
22223;SDS011;11281;52.194;21.006;2022-08-19T23:25:36;9.98;;;5.15;;
22223;SDS011;11281;52.194;21.006;2022-08-19T23:29:59;8.60;;;5.32;;
22223;SDS011;11281;52.194;21.006;2022-08-19T23:34:40;10.80;;;5.78;;
22223;SDS011;11281;52.194;21.006;2022-08-19T23:39:02;8.75;;;6.50;;
22223;SDS011;11281;52.194;21.006;2022-08-19T23:43:24;14.57;;;7.10;;
22223;SDS011;11281;52.194;21.006;2022-08-19T23:47:49;10.43;;;6.50;;
22223;SDS011;11281;52.194;21.006;2022-08-19T23:52:12;10.80;;;5.70;;
22223;SDS011;11281;52.194;21.006;2022-08-19T23:56:34;9.07;;;6.28;;
